sensor_id;sensor_type;location;lat;lon;timestamp;P1;durP1;ratioP1;P2;durP2;ratioP2
1677;SDS011;6034;46.864;15.216;2024-03-17T07:15:48;1.63;;;0.70;;
1677;SDS011;6034;46.864;15.216;2024-03-17T07:18:17;1.45;;;1.00;;
1677;SDS011;6034;46.864;15.216;2024-03-17T07:20:45;1.60;;;0.80;;
1677;SDS011;6034;46.864;15.216;2024-03-17T07:23:14;1.65;;;1.00;;
1677;SDS011;6034;46.864;15.216;2024-03-17T07:25:42;3.03;;;1.10;;
1677;SDS011;6034;46.864;15.216;2024-03-17T07:28:18;2.25;;;0.90;;
1677;SDS011;6034;46.864;15.216;2024-03-17T07:30:48;1.27;;;0.80;;
1677;SDS011;6034;46.864;15.216;2024-03-17T07:33:16;1.17;;;0.50;;
1677;SDS011;6034;46.864;15.216;2024-03-17T07:35:48;1.20;;;0.80;;
1677;SDS011;6034;46.864;15.216;2024-03-17T07:38:17;1.10;;;0.60;;
1677;SDS011;6034;46.864;15.216;2024-03-17T07:40:45;1.63;;;0.60;;
1677;SDS011;6034;46.864;15.216;2024-03-17T07:43:24;1.60;;;0.45;;
1677;SDS011;6034;46.864;15.216;2024-03-17T07:46:00;1.30;;;0.50;;
1677;SDS011;6034;46.864;15.216;2024-03-17T07:48:29;1.75;;;0.90;;
1677;SDS011;6034;46.864;15.216;2024-03-17T07:50:57;1.75;;;0.80;;
1677;SDS011;6034;46.864;15.216;2024-03-17T07:53:26;2.08;;;0.55;;
1677;SDS011;6034;46.864;15.216;2024-03-17T07:55:57;1.10;;;0.55;;
1677;SDS011;6034;46.864;15.216;2024-03-17T07:58:25;1.10;;;0.60;;
1677;SDS011;6034;46.864;15.216;2024-03-17T08:00:53;2.25;;;0.65;;
1677;SDS011;6034;46.864;15.216;2024-03-17T08:03:27;1.20;;;0.60;;
1677;SDS011;6034;46.864;15.216;2024-03-17T08:05:55;1.10;;;0.50;;
1677;SDS011;6034;46.864;15.216;2024-03-17T08:08:22;1.30;;;0.60;;
1677;SDS011;6034;46.864;15.216;2024-03-17T08:10:50;2.63;;;0.50;;
1677;SDS011;6034;46.864;15.216;2024-03-17T08:13:18;1.73;;;0.85;;
1677;SDS011;6034;46.864;15.216;2024-03-17T08:15:46;1.45;;;0.50;;
1677;SDS011;6034;46.864;15.216;2024-03-17T08:18:21;1.33;;;0.68;;
1677;SDS011;6034;46.864;15.216;2024-03-17T08:20:50;2.25;;;0.55;;
1677;SDS011;6034;46.864;15.216;2024-03-17T08:23:19;1.75;;;0.80;;
1677;SDS011;6034;46.864;15.216;2024-03-17T08:25:51;1.88;;;0.50;;
1677;SDS011;6034;46.864;15.216;2024-03-17T08:28:19;8.07;;;5.95;;
1677;SDS011;6034;46.864;15.216;2024-03-17T08:30:56;2.53;;;1.50;;
1677;SDS011;6034;46.864;15.216;2024-03-17T08:33:25;1.20;;;0.60;;
1677;SDS011;6034;46.864;15.216;2024-03-17T08:35:55;1.30;;;0.60;;
1677;SDS011;6034;46.864;15.216;2024-03-17T08:38:23;1.50;;;0.75;;
1677;SDS011;6034;46.864;15.216;2024-03-17T08:40:51;1.27;;;0.60;;
1677;SDS011;6034;46.864;15.216;2024-03-17T08:43:19;1.30;;;0.60;;
1677;SDS011;6034;46.864;15.216;2024-03-17T08:45:54;2.17;;;0.90;;
1677;SDS011;6034;46.864;15.216;2024-03-17T08:48:24;2.05;;;1.30;;
1677;SDS011;6034;46.864;15.216;2024-03-17T08:50:52;2.15;;;1.95;;
1677;SDS011;6034;46.864;15.216;2024-03-17T08:53:21;1.20;;;0.57;;
1677;SDS011;6034;46.864;15.216;2024-03-17T08:55:49;1.52;;;0.50;;
1677;SDS011;6034;46.864;15.216;2024-03-17T08:58:17;1.10;;;0.47;;
1677;SDS011;6034;46.864;15.216;2024-03-17T09:00:45;1.00;;;0.50;;
1677;SDS011;6034;46.864;15.216;2024-03-17T09:03:12;1.73;;;0.85;;
1677;SDS011;6034;46.864;15.216;2024-03-17T09:05:40;2.30;;;0.80;;
1677;SDS011;6034;46.864;15.216;2024-03-17T09:08:09;1.70;;;0.60;;
1677;SDS011;6034;46.864;15.216;2024-03-17T09:10:44;1.63;;;0.73;;
1677;SDS011;6034;46.864;15.216;2024-03-17T09:13:12;1.00;;;0.50;;
1677;SDS011;6034;46.864;15.216;2024-03-17T09:15:49;1.33;;;0.80;;
1677;SDS011;6034;46.864;15.216;2024-03-17T09:18:17;1.13;;;0.50;;
1677;SDS011;6034;46.864;15.216;2024-03-17T09:20:45;1.25;;;0.60;;
1677;SDS011;6034;46.864;15.216;2024-03-17T09:23:12;1.77;;;0.80;;
1677;SDS011;6034;46.864;15.216;2024-03-17T09:25:40;2.17;;;0.70;;
1677;SDS011;6034;46.864;15.216;2024-03-17T09:28:09;1.00;;;0.43;;
1677;SDS011;6034;46.864;15.216;2024-03-17T09:30:37;1.10;;;0.50;;
1677;SDS011;6034;46.864;15.216;2024-03-17T09:33:05;1.50;;;0.50;;
1677;SDS011;6034;46.864;15.216;2024-03-17T09:35:32;1.10;;;0.52;;
1677;SDS011;6034;46.864;15.216;2024-03-17T09:37:59;0.90;;;0.40;;
1677;SDS011;6034;46.864;15.216;2024-03-17T09:40:27;1.50;;;0.55;;
1677;SDS011;6034;46.864;15.216;2024-03-17T09:42:54;1.35;;;0.52;;
1677;SDS011;6034;46.864;15.216;2024-03-17T09:45:25;2.92;;;0.75;;
1677;SDS011;6034;46.864;15.216;2024-03-17T09:47:54;1.25;;;0.50;;
1677;SDS011;6034;46.864;15.216;2024-03-17T09:50:21;2.40;;;0.70;;
1677;SDS011;6034;46.864;15.216;2024-03-17T09:52:50;1.10;;;0.50;;
1677;SDS011;6034;46.864;15.216;2024-03-17T09:55:17;1.30;;;0.50;;
1677;SDS011;6034;46.864;15.216;2024-03-17T09:57:45;1.25;;;0.50;;
1677;SDS011;6034;46.864;15.216;2024-03-17T10:00:13;1.95;;;0.57;;
1677;SDS011;6034;46.864;15.216;2024-03-17T10:02:43;1.95;;;0.63;;
1677;SDS011;6034;46.864;15.216;2024-03-17T10:05:18;1.15;;;0.55;;
1677;SDS011;6034;46.864;15.216;2024-03-17T10:07:47;4.40;;;0.60;;
1677;SDS011;6034;46.864;15.216;2024-03-17T10:10:15;1.20;;;0.60;;
1677;SDS011;6034;46.864;15.216;2024-03-17T10:12:43;1.40;;;0.60;;
1677;SDS011;6034;46.864;15.216;2024-03-17T10:15:11;1.25;;;0.65;;
1677;SDS011;6034;46.864;15.216;2024-03-17T10:17:40;0.90;;;0.40;;
1677;SDS011;6034;46.864;15.216;2024-03-17T10:20:12;1.00;;;0.52;;
1677;SDS011;6034;46.864;15.216;2024-03-17T10:23:00;1.23;;;0.50;;
1677;SDS011;6034;46.864;15.216;2024-03-17T10:25:29;1.52;;;0.68;;
1677;SDS011;6034;46.864;15.216;2024-03-17T10:27:58;1.00;;;0.30;;
1677;SDS011;6034;46.864;15.216;2024-03-17T10:30:28;1.00;;;0.50;;
1677;SDS011;6034;46.864;15.216;2024-03-17T10:32:57;1.45;;;0.55;;
1677;SDS011;6034;46.864;15.216;2024-03-17T10:35:27;1.10;;;0.50;;
1677;SDS011;6034;46.864;15.216;2024-03-17T10:37:56;1.35;;;0.70;;
1677;SDS011;6034;46.864;15.216;2024-03-17T10:40:25;0.90;;;0.35;;
1677;SDS011;6034;46.864;15.216;2024-03-17T10:42:54;1.08;;;0.52;;
1677;SDS011;6034;46.864;15.216;2024-03-17T10:45:22;1.85;;;0.43;;
1677;SDS011;6034;46.864;15.216;2024-03-17T10:47:51;1.90;;;0.50;;
1677;SDS011;6034;46.864;15.216;2024-03-17T10:50:21;1.30;;;0.60;;
1677;SDS011;6034;46.864;15.216;2024-03-17T10:52:49;1.10;;;0.55;;
1677;SDS011;6034;46.864;15.216;2024-03-17T10:55:20;2.15;;;0.60;;
1677;SDS011;6034;46.864;15.216;2024-03-17T10:57:48;1.30;;;0.55;;
1677;SDS011;6034;46.864;15.216;2024-03-17T11:00:16;1.33;;;0.65;;
1677;SDS011;6034;46.864;15.216;2024-03-17T11:02:47;1.20;;;0.65;;
1677;SDS011;6034;46.864;15.216;2024-03-17T11:05:22;1.58;;;0.70;;
1677;SDS011;6034;46.864;15.216;2024-03-17T11:07:50;1.10;;;0.50;;
1677;SDS011;6034;46.864;15.216;2024-03-17T11:10:21;1.17;;;0.75;;
1677;SDS011;6034;46.864;15.216;2024-03-17T11:12:50;1.52;;;0.85;;
1677;SDS011;6034;46.864;15.216;2024-03-17T11:21:20;1.40;;;0.88;;
1677;SDS011;6034;46.864;15.216;2024-03-17T11:23:57;1.30;;;0.57;;
1677;SDS011;6034;46.864;15.216;2024-03-17T11:26:26;1.00;;;0.50;;
1677;SDS011;6034;46.864;15.216;2024-03-17T11:28:59;1.35;;;0.65;;
1677;SDS011;6034;46.864;15.216;2024-03-17T11:31:42;2.00;;;0.85;;
1677;SDS011;6034;46.864;15.216;2024-03-17T11:34:26;1.60;;;0.70;;
1677;SDS011;6034;46.864;15.216;2024-03-17T11:37:06;1.40;;;0.93;;
1677;SDS011;6034;46.864;15.216;2024-03-17T11:39:51;1.40;;;0.60;;
1677;SDS011;6034;46.864;15.216;2024-03-17T11:42:25;1.40;;;0.82;;
1677;SDS011;6034;46.864;15.216;2024-03-17T11:44:58;1.60;;;0.70;;
1677;SDS011;6034;46.864;15.216;2024-03-17T11:47:34;1.65;;;0.77;;
1677;SDS011;6034;46.864;15.216;2024-03-17T11:50:05;2.33;;;1.10;;
1677;SDS011;6034;46.864;15.216;2024-03-17T11:52:37;1.20;;;0.60;;
1677;SDS011;6034;46.864;15.216;2024-03-17T11:55:05;2.95;;;2.40;;
1677;SDS011;6034;46.864;15.216;2024-03-17T11:57:43;1.40;;;0.70;;
1677;SDS011;6034;46.864;15.216;2024-03-17T12:00:18;1.90;;;0.93;;
1677;SDS011;6034;46.864;15.216;2024-03-17T12:02:48;1.50;;;0.90;;
1677;SDS011;6034;46.864;15.216;2024-03-17T12:05:15;1.90;;;0.90;;
1677;SDS011;6034;46.864;15.216;2024-03-17T12:07:45;1.50;;;0.80;;
1677;SDS011;6034;46.864;15.216;2024-03-17T12:10:15;9.83;;;1.33;;
1677;SDS011;6034;46.864;15.216;2024-03-17T12:12:46;1.70;;;0.80;;
1677;SDS011;6034;46.864;15.216;2024-03-17T12:15:16;2.95;;;0.98;;
1677;SDS011;6034;46.864;15.216;2024-03-17T12:17:45;1.70;;;0.90;;
1677;SDS011;6034;46.864;15.216;2024-03-17T12:20:17;1.88;;;0.88;;
1677;SDS011;6034;46.864;15.216;2024-03-17T12:22:48;1.40;;;0.80;;
1677;SDS011;6034;46.864;15.216;2024-03-17T12:25:16;1.75;;;1.05;;
1677;SDS011;6034;46.864;15.216;2024-03-17T12:27:46;2.70;;;1.38;;
1677;SDS011;6034;46.864;15.216;2024-03-17T12:30:14;1.20;;;0.70;;
1677;SDS011;6034;46.864;15.216;2024-03-17T12:32:42;2.87;;;1.37;;
1677;SDS011;6034;46.864;15.216;2024-03-17T12:35:12;1.70;;;1.10;;
1677;SDS011;6034;46.864;15.216;2024-03-17T12:37:43;2.00;;;1.40;;
1677;SDS011;6034;46.864;15.216;2024-03-17T12:40:19;1.70;;;1.20;;
1677;SDS011;6034;46.864;15.216;2024-03-17T12:42:49;1.70;;;1.42;;
1677;SDS011;6034;46.864;15.216;2024-03-17T12:45:20;2.00;;;1.15;;
1677;SDS011;6034;46.864;15.216;2024-03-17T12:47:47;1.77;;;1.42;;
1677;SDS011;6034;46.864;15.216;2024-03-17T12:50:16;2.22;;;1.48;;
1677;SDS011;6034;46.864;15.216;2024-03-17T12:52:51;2.53;;;1.27;;
1677;SDS011;6034;46.864;15.216;2024-03-17T12:55:22;2.80;;;1.42;;
1677;SDS011;6034;46.864;15.216;2024-03-17T12:58:07;1.52;;;1.02;;
1677;SDS011;6034;46.864;15.216;2024-03-17T13:00:57;3.70;;;1.50;;
1677;SDS011;6034;46.864;15.216;2024-03-17T13:03:25;1.67;;;1.15;;
1677;SDS011;6034;46.864;15.216;2024-03-17T13:05:54;1.50;;;1.10;;
1677;SDS011;6034;46.864;15.216;2024-03-17T13:08:22;2.95;;;2.35;;
1677;SDS011;6034;46.864;15.216;2024-03-17T13:10:50;3.08;;;1.70;;
1677;SDS011;6034;46.864;15.216;2024-03-17T13:13:18;1.90;;;1.30;;
1677;SDS011;6034;46.864;15.216;2024-03-17T13:15:45;2.05;;;1.23;;
1677;SDS011;6034;46.864;15.216;2024-03-17T13:18:15;2.97;;;1.20;;
1677;SDS011;6034;46.864;15.216;2024-03-17T13:20:45;1.65;;;1.08;;
1677;SDS011;6034;46.864;15.216;2024-03-17T13:23:19;1.93;;;1.40;;
1677;SDS011;6034;46.864;15.216;2024-03-17T13:25:50;1.85;;;1.10;;
1677;SDS011;6034;46.864;15.216;2024-03-17T13:28:18;2.60;;;1.45;;
1677;SDS011;6034;46.864;15.216;2024-03-17T13:30:45;2.30;;;1.45;;
1677;SDS011;6034;46.864;15.216;2024-03-17T13:33:13;1.93;;;1.00;;
1677;SDS011;6034;46.864;15.216;2024-03-17T13:35:41;1.95;;;1.40;;
1677;SDS011;6034;46.864;15.216;2024-03-17T13:38:09;1.67;;;1.10;;
1677;SDS011;6034;46.864;15.216;2024-03-17T13:40:39;3.95;;;0.95;;
1677;SDS011;6034;46.864;15.216;2024-03-17T13:43:09;2.30;;;1.17;;
1677;SDS011;6034;46.864;15.216;2024-03-17T13:45:38;1.90;;;1.13;;
1677;SDS011;6034;46.864;15.216;2024-03-17T13:48:06;1.40;;;0.90;;
1677;SDS011;6034;46.864;15.216;2024-03-17T13:50:35;1.70;;;1.20;;
1677;SDS011;6034;46.864;15.216;2024-03-17T13:53:03;1.95;;;1.02;;
1677;SDS011;6034;46.864;15.216;2024-03-17T13:55:32;2.30;;;1.00;;
1677;SDS011;6034;46.864;15.216;2024-03-17T13:58:00;1.45;;;1.02;;
1677;SDS011;6034;46.864;15.216;2024-03-17T14:00:31;2.35;;;1.55;;
1677;SDS011;6034;46.864;15.216;2024-03-17T14:03:01;4.20;;;1.10;;
1677;SDS011;6034;46.864;15.216;2024-03-17T14:05:29;2.10;;;1.25;;
1677;SDS011;6034;46.864;15.216;2024-03-17T14:07:58;1.57;;;0.90;;
1677;SDS011;6034;46.864;15.216;2024-03-17T14:10:25;2.03;;;1.07;;
1677;SDS011;6034;46.864;15.216;2024-03-17T14:12:53;1.80;;;1.10;;
1677;SDS011;6034;46.864;15.216;2024-03-17T14:15:22;2.57;;;1.40;;
1677;SDS011;6034;46.864;15.216;2024-03-17T14:17:51;2.30;;;1.30;;
1677;SDS011;6034;46.864;15.216;2024-03-17T14:20:19;1.77;;;1.23;;
1677;SDS011;6034;46.864;15.216;2024-03-17T14:22:46;3.13;;;1.33;;
1677;SDS011;6034;46.864;15.216;2024-03-17T14:25:18;2.60;;;1.45;;
1677;SDS011;6034;46.864;15.216;2024-03-17T14:27:46;1.75;;;1.05;;
1677;SDS011;6034;46.864;15.216;2024-03-17T14:30:15;4.28;;;3.88;;
1677;SDS011;6034;46.864;15.216;2024-03-17T14:32:44;2.87;;;1.33;;
1677;SDS011;6034;46.864;15.216;2024-03-17T14:35:14;2.38;;;1.40;;
1677;SDS011;6034;46.864;15.216;2024-03-17T14:37:43;2.03;;;1.25;;
1677;SDS011;6034;46.864;15.216;2024-03-17T14:40:13;3.65;;;1.70;;
1677;SDS011;6034;46.864;15.216;2024-03-17T14:42:45;1.90;;;1.38;;
1677;SDS011;6034;46.864;15.216;2024-03-17T14:45:13;3.03;;;1.50;;
1677;SDS011;6034;46.864;15.216;2024-03-17T14:47:41;2.30;;;1.60;;
1677;SDS011;6034;46.864;15.216;2024-03-17T14:50:09;1.85;;;1.50;;
1677;SDS011;6034;46.864;15.216;2024-03-17T14:52:39;3.17;;;2.13;;
1677;SDS011;6034;46.864;15.216;2024-03-17T14:55:08;2.40;;;1.73;;
1677;SDS011;6034;46.864;15.216;2024-03-17T14:57:36;1.75;;;1.42;;
1677;SDS011;6034;46.864;15.216;2024-03-17T15:00:04;2.20;;;1.83;;
1677;SDS011;6034;46.864;15.216;2024-03-17T15:02:39;1.88;;;1.50;;
1677;SDS011;6034;46.864;15.216;2024-03-17T15:05:07;2.90;;;1.90;;
1677;SDS011;6034;46.864;15.216;2024-03-17T15:07:35;2.58;;;2.13;;
1677;SDS011;6034;46.864;15.216;2024-03-17T15:10:04;2.40;;;1.70;;
1677;SDS011;6034;46.864;15.216;2024-03-17T15:12:32;2.08;;;1.70;;
1677;SDS011;6034;46.864;15.216;2024-03-17T15:15:00;1.90;;;1.48;;
1677;SDS011;6034;46.864;15.216;2024-03-17T15:17:29;2.90;;;2.10;;
1677;SDS011;6034;46.864;15.216;2024-03-17T15:19:58;2.60;;;1.70;;
1677;SDS011;6034;46.864;15.216;2024-03-17T15:22:26;1.70;;;1.30;;
1677;SDS011;6034;46.864;15.216;2024-03-17T15:24:53;2.60;;;1.88;;
1677;SDS011;6034;46.864;15.216;2024-03-17T15:27:22;2.10;;;1.40;;
1677;SDS011;6034;46.864;15.216;2024-03-17T15:29:49;2.03;;;1.75;;
1677;SDS011;6034;46.864;15.216;2024-03-17T15:32:17;2.67;;;1.92;;
1677;SDS011;6034;46.864;15.216;2024-03-17T15:34:45;2.20;;;1.70;;
1677;SDS011;6034;46.864;15.216;2024-03-17T15:37:12;2.38;;;1.50;;
1677;SDS011;6034;46.864;15.216;2024-03-17T15:39:41;2.83;;;1.50;;
1677;SDS011;6034;46.864;15.216;2024-03-17T15:42:09;2.40;;;1.70;;
1677;SDS011;6034;46.864;15.216;2024-03-17T15:44:39;3.03;;;1.73;;
1677;SDS011;6034;46.864;15.216;2024-03-17T15:47:07;3.97;;;2.10;;
1677;SDS011;6034;46.864;15.216;2024-03-17T15:49:34;2.00;;;1.63;;
1677;SDS011;6034;46.864;15.216;2024-03-17T15:52:02;2.10;;;1.73;;
1677;SDS011;6034;46.864;15.216;2024-03-17T15:54:30;3.25;;;2.15;;
1677;SDS011;6034;46.864;15.216;2024-03-17T15:56:57;2.97;;;2.22;;
1677;SDS011;6034;46.864;15.216;2024-03-17T15:59:25;2.67;;;2.47;;
1677;SDS011;6034;46.864;15.216;2024-03-17T16:01:54;2.40;;;2.20;;
1677;SDS011;6034;46.864;15.216;2024-03-17T16:04:22;2.75;;;2.20;;
1677;SDS011;6034;46.864;15.216;2024-03-17T16:06:51;2.30;;;2.00;;
1677;SDS011;6034;46.864;15.216;2024-03-17T16:09:20;2.22;;;1.85;;
1677;SDS011;6034;46.864;15.216;2024-03-17T16:11:47;2.58;;;2.03;;
1677;SDS011;6034;46.864;15.216;2024-03-17T16:14:15;3.08;;;2.63;;
1677;SDS011;6034;46.864;15.216;2024-03-17T16:16:42;3.08;;;2.10;;
1677;SDS011;6034;46.864;15.216;2024-03-17T16:19:12;3.15;;;1.52;;
1677;SDS011;6034;46.864;15.216;2024-03-17T16:21:41;2.50;;;2.00;;
1677;SDS011;6034;46.864;15.216;2024-03-17T16:24:10;9.68;;;4.22;;
1677;SDS011;6034;46.864;15.216;2024-03-17T16:26:40;4.43;;;2.28;;
1677;SDS011;6034;46.864;15.216;2024-03-17T16:29:08;2.08;;;1.55;;
1677;SDS011;6034;46.864;15.216;2024-03-17T16:31:36;3.28;;;1.85;;
1677;SDS011;6034;46.864;15.216;2024-03-17T16:34:05;3.92;;;1.80;;
1677;SDS011;6034;46.864;15.216;2024-03-17T16:36:34;3.10;;;2.03;;
1677;SDS011;6034;46.864;15.216;2024-03-17T16:39:06;3.80;;;2.10;;
1677;SDS011;6034;46.864;15.216;2024-03-17T16:41:36;3.85;;;2.35;;
1677;SDS011;6034;46.864;15.216;2024-03-17T16:44:05;2.67;;;2.03;;
1677;SDS011;6034;46.864;15.216;2024-03-17T16:46:49;3.30;;;2.10;;
1677;SDS011;6034;46.864;15.216;2024-03-17T16:49:38;2.75;;;2.35;;
1677;SDS011;6034;46.864;15.216;2024-03-17T16:52:06;2.38;;;2.00;;
1677;SDS011;6034;46.864;15.216;2024-03-17T16:54:34;2.10;;;1.50;;
1677;SDS011;6034;46.864;15.216;2024-03-17T16:57:03;2.80;;;2.15;;
1677;SDS011;6034;46.864;15.216;2024-03-17T16:59:31;4.15;;;2.17;;
1677;SDS011;6034;46.864;15.216;2024-03-17T17:02:02;2.40;;;1.88;;
1677;SDS011;6034;46.864;15.216;2024-03-17T17:04:32;2.70;;;1.98;;
1677;SDS011;6034;46.864;15.216;2024-03-17T17:07:00;2.40;;;1.65;;
1677;SDS011;6034;46.864;15.216;2024-03-17T17:09:29;3.08;;;1.70;;
1677;SDS011;6034;46.864;15.216;2024-03-17T17:11:57;2.13;;;1.85;;
1677;SDS011;6034;46.864;15.216;2024-03-17T17:14:24;2.53;;;1.60;;
1677;SDS011;6034;46.864;15.216;2024-03-17T17:16:55;2.28;;;1.67;;
1677;SDS011;6034;46.864;15.216;2024-03-17T17:19:23;3.25;;;1.85;;
1677;SDS011;6034;46.864;15.216;2024-03-17T17:21:51;3.72;;;1.80;;
1677;SDS011;6034;46.864;15.216;2024-03-17T17:24:18;2.70;;;2.20;;
1677;SDS011;6034;46.864;15.216;2024-03-17T17:26:51;2.85;;;2.20;;
1677;SDS011;6034;46.864;15.216;2024-03-17T17:29:20;2.92;;;2.38;;
1677;SDS011;6034;46.864;15.216;2024-03-17T17:31:47;2.90;;;1.80;;
1677;SDS011;6034;46.864;15.216;2024-03-17T17:34:15;3.58;;;2.05;;
1677;SDS011;6034;46.864;15.216;2024-03-17T17:36:43;3.28;;;2.20;;
1677;SDS011;6034;46.864;15.216;2024-03-17T17:39:10;5.05;;;2.30;;
1677;SDS011;6034;46.864;15.216;2024-03-17T17:41:40;3.42;;;2.92;;
1677;SDS011;6034;46.864;15.216;2024-03-17T17:44:09;2.58;;;2.00;;
1677;SDS011;6034;46.864;15.216;2024-03-17T17:46:36;3.05;;;2.03;;
1677;SDS011;6034;46.864;15.216;2024-03-17T17:49:05;2.80;;;2.28;;
1677;SDS011;6034;46.864;15.216;2024-03-17T17:51:36;2.75;;;2.55;;
1677;SDS011;6034;46.864;15.216;2024-03-17T17:54:05;2.92;;;2.40;;
1677;SDS011;6034;46.864;15.216;2024-03-17T17:56:33;3.88;;;2.70;;
1677;SDS011;6034;46.864;15.216;2024-03-17T17:59:00;3.20;;;2.50;;
1677;SDS011;6034;46.864;15.216;2024-03-17T18:01:31;3.30;;;2.53;;
1677;SDS011;6034;46.864;15.216;2024-03-17T18:03:59;3.15;;;2.05;;
1677;SDS011;6034;46.864;15.216;2024-03-17T18:06:26;3.58;;;2.38;;
1677;SDS011;6034;46.864;15.216;2024-03-17T18:08:54;3.10;;;2.20;;
1677;SDS011;6034;46.864;15.216;2024-03-17T18:11:22;2.22;;;1.70;;
1677;SDS011;6034;46.864;15.216;2024-03-17T18:13:50;3.13;;;2.15;;
1677;SDS011;6034;46.864;15.216;2024-03-17T18:16:19;2.15;;;1.70;;
1677;SDS011;6034;46.864;15.216;2024-03-17T18:18:48;4.10;;;1.73;;
1677;SDS011;6034;46.864;15.216;2024-03-17T18:21:16;3.95;;;2.45;;
1677;SDS011;6034;46.864;15.216;2024-03-17T18:23:44;2.85;;;2.30;;
1677;SDS011;6034;46.864;15.216;2024-03-17T18:26:13;3.35;;;2.72;;
1677;SDS011;6034;46.864;15.216;2024-03-17T18:28:42;3.47;;;2.30;;
1677;SDS011;6034;46.864;15.216;2024-03-17T18:31:10;3.33;;;2.80;;
1677;SDS011;6034;46.864;15.216;2024-03-17T18:33:38;2.67;;;2.30;;
1677;SDS011;6034;46.864;15.216;2024-03-17T18:36:10;4.50;;;3.20;;
1677;SDS011;6034;46.864;15.216;2024-03-17T18:38:39;2.58;;;2.30;;
1677;SDS011;6034;46.864;15.216;2024-03-17T18:41:08;3.63;;;2.80;;
1677;SDS011;6034;46.864;15.216;2024-03-17T18:43:37;2.25;;;1.90;;
1677;SDS011;6034;46.864;15.216;2024-03-17T18:46:12;4.63;;;2.90;;
1677;SDS011;6034;46.864;15.216;2024-03-17T18:48:40;3.45;;;3.08;;
1677;SDS011;6034;46.864;15.216;2024-03-17T18:51:12;3.53;;;2.60;;
1677;SDS011;6034;46.864;15.216;2024-03-17T18:53:40;4.18;;;2.40;;
1677;SDS011;6034;46.864;15.216;2024-03-17T18:56:08;5.32;;;2.25;;
1677;SDS011;6034;46.864;15.216;2024-03-17T18:58:36;3.22;;;2.55;;
1677;SDS011;6034;46.864;15.216;2024-03-17T19:01:04;3.05;;;2.65;;
1677;SDS011;6034;46.864;15.216;2024-03-17T19:03:32;4.28;;;3.10;;
1677;SDS011;6034;46.864;15.216;2024-03-17T19:06:05;4.68;;;2.60;;
1677;SDS011;6034;46.864;15.216;2024-03-17T19:08:36;3.70;;;2.72;;
1677;SDS011;6034;46.864;15.216;2024-03-17T19:11:04;3.63;;;2.88;;
1677;SDS011;6034;46.864;15.216;2024-03-17T19:13:32;4.88;;;2.83;;
1677;SDS011;6034;46.864;15.216;2024-03-17T19:16:02;5.18;;;2.80;;
1677;SDS011;6034;46.864;15.216;2024-03-17T19:18:31;3.28;;;2.92;;
1677;SDS011;6034;46.864;15.216;2024-03-17T19:21:03;3.42;;;2.58;;
1677;SDS011;6034;46.864;15.216;2024-03-17T19:23:32;3.58;;;2.60;;
1677;SDS011;6034;46.864;15.216;2024-03-17T19:26:02;3.00;;;2.60;;
1677;SDS011;6034;46.864;15.216;2024-03-17T19:28:32;5.85;;;3.55;;
1677;SDS011;6034;46.864;15.216;2024-03-17T19:31:01;4.78;;;2.88;;
1677;SDS011;6034;46.864;15.216;2024-03-17T19:33:30;4.68;;;3.33;;
1677;SDS011;6034;46.864;15.216;2024-03-17T19:35:59;4.65;;;2.80;;
1677;SDS011;6034;46.864;15.216;2024-03-17T19:38:31;3.47;;;3.17;;
1677;SDS011;6034;46.864;15.216;2024-03-17T19:40:59;6.72;;;3.50;;
1677;SDS011;6034;46.864;15.216;2024-03-17T19:43:30;4.13;;;2.65;;
1677;SDS011;6034;46.864;15.216;2024-03-17T19:46:01;2.88;;;2.30;;
1677;SDS011;6034;46.864;15.216;2024-03-17T19:48:32;3.72;;;2.63;;
1677;SDS011;6034;46.864;15.216;2024-03-17T19:51:11;4.47;;;3.35;;
1677;SDS011;6034;46.864;15.216;2024-03-17T19:53:41;6.47;;;2.53;;
1677;SDS011;6034;46.864;15.216;2024-03-17T19:56:11;3.33;;;2.83;;
1677;SDS011;6034;46.864;15.216;2024-03-17T19:58:41;5.28;;;2.90;;
1677;SDS011;6034;46.864;15.216;2024-03-17T20:01:10;2.72;;;2.53;;
1677;SDS011;6034;46.864;15.216;2024-03-17T20:03:40;6.32;;;2.90;;
1677;SDS011;6034;46.864;15.216;2024-03-17T20:06:12;4.00;;;2.75;;
1677;SDS011;6034;46.864;15.216;2024-03-17T20:08:45;4.28;;;2.75;;
1677;SDS011;6034;46.864;15.216;2024-03-17T20:11:16;4.97;;;3.10;;
1677;SDS011;6034;46.864;15.216;2024-03-17T20:13:48;3.95;;;3.10;;
1677;SDS011;6034;46.864;15.216;2024-03-17T20:16:16;4.07;;;2.95;;
1677;SDS011;6034;46.864;15.216;2024-03-17T20:18:46;4.47;;;2.70;;
1677;SDS011;6034;46.864;15.216;2024-03-17T20:21:14;4.07;;;2.95;;
1677;SDS011;6034;46.864;15.216;2024-03-17T20:23:44;5.60;;;2.90;;
1677;SDS011;6034;46.864;15.216;2024-03-17T20:26:12;5.22;;;2.65;;
1677;SDS011;6034;46.864;15.216;2024-03-17T20:28:43;3.00;;;2.65;;
1677;SDS011;6034;46.864;15.216;2024-03-17T20:31:14;6.35;;;3.20;;
1677;SDS011;6034;46.864;15.216;2024-03-17T20:33:43;5.10;;;3.65;;
1677;SDS011;6034;46.864;15.216;2024-03-17T20:36:12;3.80;;;2.65;;
1677;SDS011;6034;46.864;15.216;2024-03-17T20:38:42;5.88;;;3.15;;
1677;SDS011;6034;46.864;15.216;2024-03-17T20:41:10;3.72;;;2.58;;
1677;SDS011;6034;46.864;15.216;2024-03-17T20:43:37;7.75;;;3.25;;
1677;SDS011;6034;46.864;15.216;2024-03-17T20:46:08;7.10;;;2.67;;
1677;SDS011;6034;46.864;15.216;2024-03-17T20:48:36;3.55;;;2.45;;
1677;SDS011;6034;46.864;15.216;2024-03-17T20:51:04;6.45;;;3.10;;
1677;SDS011;6034;46.864;15.216;2024-03-17T20:53:32;5.13;;;3.03;;
1677;SDS011;6034;46.864;15.216;2024-03-17T20:56:00;6.30;;;2.80;;
1677;SDS011;6034;46.864;15.216;2024-03-17T20:58:28;4.80;;;3.90;;
1677;SDS011;6034;46.864;15.216;2024-03-17T21:00:56;4.78;;;2.60;;
1677;SDS011;6034;46.864;15.216;2024-03-17T21:03:26;3.00;;;2.58;;
1677;SDS011;6034;46.864;15.216;2024-03-17T21:05:53;4.20;;;3.30;;
1677;SDS011;6034;46.864;15.216;2024-03-17T21:08:21;8.13;;;3.20;;
1677;SDS011;6034;46.864;15.216;2024-03-17T21:10:55;3.40;;;2.97;;
1677;SDS011;6034;46.864;15.216;2024-03-17T21:13:25;5.20;;;3.30;;
1677;SDS011;6034;46.864;15.216;2024-03-17T21:15:52;5.70;;;3.08;;
1677;SDS011;6034;46.864;15.216;2024-03-17T21:18:19;5.57;;;2.70;;
1677;SDS011;6034;46.864;15.216;2024-03-17T21:20:49;7.55;;;2.63;;
1677;SDS011;6034;46.864;15.216;2024-03-17T21:23:17;10.45;;;7.05;;
1677;SDS011;6034;46.864;15.216;2024-03-17T21:25:44;7.82;;;5.18;;
1677;SDS011;6034;46.864;15.216;2024-03-17T21:28:12;18.92;;;12.20;;
1677;SDS011;6034;46.864;15.216;2024-03-17T21:30:41;10.40;;;7.95;;
1677;SDS011;6034;46.864;15.216;2024-03-17T21:33:09;5.95;;;4.25;;
1677;SDS011;6034;46.864;15.216;2024-03-17T21:35:39;3.22;;;2.42;;
1677;SDS011;6034;46.864;15.216;2024-03-17T21:38:07;3.50;;;3.20;;
1677;SDS011;6034;46.864;15.216;2024-03-17T21:40:35;3.22;;;2.83;;
1677;SDS011;6034;46.864;15.216;2024-03-17T21:43:02;6.45;;;3.30;;
1677;SDS011;6034;46.864;15.216;2024-03-17T21:45:30;4.47;;;3.13;;
1677;SDS011;6034;46.864;15.216;2024-03-17T21:47:58;4.85;;;2.97;;
1677;SDS011;6034;46.864;15.216;2024-03-17T21:50:26;5.68;;;3.03;;
1677;SDS011;6034;46.864;15.216;2024-03-17T21:52:53;5.80;;;2.80;;
1677;SDS011;6034;46.864;15.216;2024-03-17T21:55:22;4.13;;;2.65;;
1677;SDS011;6034;46.864;15.216;2024-03-17T21:57:50;4.38;;;3.97;;
